createdAt,value
2023-09-22T00:00:49.000Z,100
2023-09-22T00:02:20.000Z,100
2023-09-22T00:03:50.000Z,100
2023-09-22T00:05:21.000Z,100
2023-09-22T00:06:51.000Z,100
2023-09-22T00:08:22.000Z,100
2023-09-22T00:09:39.000Z,100
2023-09-22T00:10:56.000Z,100
2023-09-22T00:12:26.000Z,100
2023-09-22T00:13:57.000Z,100
2023-09-22T00:15:27.000Z,100
2023-09-22T00:16:58.000Z,100
2023-09-22T00:18:28.000Z,100
2023-09-22T00:19:59.000Z,100
2023-09-22T00:21:29.000Z,100
2023-09-22T00:23:00.000Z,100
2023-09-22T00:24:30.000Z,100
2023-09-22T00:25:47.000Z,100
2023-09-22T00:27:04.000Z,100
2023-09-22T00:28:35.000Z,100
2023-09-22T00:30:05.000Z,100
2023-09-22T00:31:36.000Z,100
2023-09-22T00:33:06.000Z,100
2023-09-22T00:34:37.000Z,100
2023-09-22T00:36:07.000Z,100
2023-09-22T00:37:38.000Z,100
2023-09-22T00:39:08.000Z,100
2023-09-22T00:40:39.000Z,100
2023-09-22T00:41:56.000Z,100
2023-09-22T00:43:13.000Z,100
2023-09-22T00:44:43.000Z,100
2023-09-22T00:46:14.000Z,100
2023-09-22T00:47:44.000Z,100
2023-09-22T00:49:15.000Z,100
2023-09-22T00:50:45.000Z,100
2023-09-22T00:52:16.000Z,100
2023-09-22T00:53:46.000Z,100
2023-09-22T00:55:17.000Z,100
2023-09-22T00:56:47.000Z,100
2023-09-22T00:58:05.053Z,100
2023-09-22T00:59:21.000Z,100
2023-09-22T01:00:52.000Z,100
2023-09-22T01:02:22.000Z,100
2023-09-22T01:03:53.000Z,100
2023-09-22T01:05:23.000Z,100
2023-09-22T01:06:54.000Z,100
2023-09-22T01:08:24.000Z,100
2023-09-22T01:09:55.000Z,100
2023-09-22T01:11:25.000Z,100
2023-09-22T01:12:56.000Z,100
2023-09-22T01:14:12.000Z,100
2023-09-22T01:15:29.000Z,100
2023-09-22T01:17:00.000Z,100
2023-09-22T01:18:30.000Z,100
2023-09-22T01:23:02.000Z,100
2023-09-22T01:24:32.000Z,100
2023-09-22T01:26:03.000Z,100
2023-09-22T01:27:34.000Z,100
2023-09-22T01:29:04.000Z,100
2023-09-22T01:30:21.000Z,100
2023-09-22T01:31:38.000Z,100
2023-09-22T01:33:08.000Z,100
2023-09-22T01:34:39.000Z,100
2023-09-22T01:37:40.000Z,100
2023-09-22T01:42:12.000Z,100
2023-09-22T01:43:42.000Z,100
2023-09-22T01:45:13.000Z,100
2023-09-22T01:46:30.000Z,100
2023-09-22T01:47:46.000Z,100
2023-09-22T01:49:17.000Z,100
2023-09-22T01:50:47.000Z,100
2023-09-22T01:52:18.000Z,100
2023-09-22T01:53:48.000Z,100
2023-09-22T01:55:19.000Z,100
2023-09-22T01:56:49.000Z,100
2023-09-22T01:59:50.000Z,100
2023-09-22T02:01:21.000Z,100
2023-09-22T02:02:37.000Z,100
2023-09-22T02:03:54.000Z,100
2023-09-22T02:05:25.000Z,100
2023-09-22T02:06:55.000Z,100
2023-09-22T02:08:26.000Z,100
2023-09-22T02:09:56.000Z,100
2023-09-22T02:11:27.000Z,100
2023-09-22T02:12:57.000Z,100
2023-09-22T02:14:28.000Z,100
2023-09-22T02:15:58.000Z,100
2023-09-22T02:17:29.000Z,100
2023-09-22T02:18:46.000Z,100
2023-09-22T02:20:02.000Z,100
2023-09-22T02:21:33.000Z,100
2023-09-22T02:23:03.000Z,100
2023-09-22T02:24:34.000Z,100
2023-09-22T02:26:04.000Z,100
2023-09-22T02:29:05.000Z,100
2023-09-22T02:30:36.000Z,100
2023-09-22T02:32:06.000Z,100
2023-09-22T02:33:37.000Z,100
2023-09-22T02:34:54.000Z,100
2023-09-22T02:36:11.000Z,100
2023-09-22T02:37:41.000Z,100
2023-09-22T02:39:12.000Z,100
2023-09-22T02:40:42.000Z,100
2023-09-22T02:42:13.000Z,100
2023-09-22T02:43:43.000Z,100
2023-09-22T02:45:14.000Z,100
2023-09-22T02:46:44.000Z,100
2023-09-22T02:48:15.000Z,100
2023-09-22T02:49:45.000Z,100
2023-09-22T02:51:02.000Z,100
2023-09-22T02:52:19.000Z,100
2023-09-22T02:53:50.000Z,100
2023-09-22T02:55:20.000Z,100
2023-09-22T02:56:51.000Z,100
2023-09-22T02:58:21.000Z,100
2023-09-22T02:59:52.000Z,100
2023-09-22T03:01:22.000Z,100
2023-09-22T03:02:53.000Z,100
2023-09-22T03:04:23.000Z,100
2023-09-22T03:05:54.000Z,100
2023-09-22T03:07:11.000Z,100
2023-09-22T03:08:28.000Z,100
2023-09-22T03:09:58.000Z,100
2023-09-22T03:11:29.000Z,100
2023-09-22T03:12:59.000Z,100
2023-09-22T03:14:30.000Z,100
2023-09-22T03:16:00.000Z,100
2023-09-22T03:17:31.000Z,100
2023-09-22T03:20:32.000Z,100
2023-09-22T03:22:03.000Z,100
2023-09-22T03:23:20.000Z,100
2023-09-22T03:24:36.000Z,100
2023-09-22T03:26:07.000Z,100
2023-09-22T03:27:38.000Z,100
2023-09-22T03:29:08.000Z,100
2023-09-22T03:30:39.000Z,100
2023-09-22T03:32:17.000Z,100
2023-09-22T03:33:48.000Z,100
2023-09-22T03:35:18.000Z,100
2023-09-22T03:36:49.000Z,100
2023-09-22T03:38:19.000Z,100
2023-09-22T03:39:36.000Z,100
2023-09-22T03:40:53.000Z,100
2023-09-22T03:42:24.000Z,100
2023-09-22T03:43:54.000Z,100
2023-09-22T03:45:25.000Z,100
2023-09-22T03:46:55.000Z,100
2023-09-22T03:48:26.000Z,100
2023-09-22T03:49:56.000Z,100
2023-09-22T03:51:27.000Z,100
2023-09-22T03:52:57.000Z,100
2023-09-22T03:55:45.000Z,100
2023-09-22T03:57:02.000Z,100
2023-09-22T03:58:32.000Z,100
2023-09-22T04:01:33.000Z,100
2023-09-22T04:03:04.000Z,100
2023-09-22T04:04:34.000Z,100
2023-09-22T04:06:05.000Z,100
2023-09-22T04:07:35.000Z,100
2023-09-22T04:09:06.000Z,100
2023-09-22T04:10:36.000Z,100
2023-09-22T04:11:53.000Z,100
2023-09-22T04:13:10.000Z,100
2023-09-22T04:14:41.000Z,100
2023-09-22T04:16:11.000Z,100
2023-09-22T04:17:42.000Z,100
2023-09-22T04:19:12.000Z,100
2023-09-22T04:20:43.000Z,100
2023-09-22T04:22:13.000Z,100
2023-09-22T04:23:44.000Z,100
2023-09-22T04:25:14.000Z,100
2023-09-22T04:26:45.000Z,100
2023-09-22T04:28:02.000Z,100
2023-09-22T04:29:19.000Z,100
2023-09-22T04:30:49.000Z,100
2023-09-22T04:32:20.000Z,100
2023-09-22T04:33:50.000Z,100
2023-09-22T04:35:21.000Z,100
2023-09-22T04:36:51.000Z,100
2023-09-22T04:39:52.000Z,100
2023-09-22T04:41:23.000Z,100
2023-09-22T04:42:53.000Z,100
2023-09-22T04:44:10.000Z,100
2023-09-22T04:45:27.000Z,100
2023-09-22T04:46:58.000Z,100
2023-09-22T04:48:28.000Z,100
2023-09-22T04:49:59.000Z,100
2023-09-22T04:51:29.000Z,100
2023-09-22T04:54:30.000Z,100
2023-09-22T04:56:01.000Z,100
2023-09-22T04:57:32.000Z,100
2023-09-22T04:59:02.000Z,100
2023-09-22T05:00:19.000Z,100
2023-09-22T05:01:36.000Z,100
2023-09-22T05:03:06.000Z,100
2023-09-22T05:04:37.000Z,100
2023-09-22T05:06:08.000Z,100
2023-09-22T05:07:38.000Z,100
2023-09-22T05:09:09.000Z,100
2023-09-22T05:10:39.000Z,100
2023-09-22T05:12:10.000Z,100
2023-09-22T05:13:40.000Z,100
2023-09-22T05:15:11.000Z,100
2023-09-22T05:16:28.000Z,100
2023-09-22T05:17:45.000Z,100
2023-09-22T05:19:15.000Z,100
2023-09-22T05:20:46.000Z,100
2023-09-22T05:22:16.000Z,100
2023-09-22T05:23:47.000Z,100
2023-09-22T05:25:17.000Z,100
2023-09-22T05:26:48.000Z,100
2023-09-22T05:28:18.000Z,100
2023-09-22T05:29:49.000Z,100
2023-09-22T05:31:19.000Z,100
2023-09-22T05:32:36.000Z,100
2023-09-22T05:33:53.000Z,100
2023-09-22T05:35:24.000Z,100
2023-09-22T05:36:54.000Z,100
2023-09-22T05:38:25.000Z,100
2023-09-22T05:39:55.000Z,100
2023-09-22T05:42:56.000Z,100
2023-09-22T05:44:27.000Z,100
2023-09-22T05:45:57.000Z,100
2023-09-22T05:47:28.000Z,100
2023-09-22T05:48:45.000Z,100
2023-09-22T05:50:01.000Z,100
2023-09-22T05:51:32.000Z,100
2023-09-22T05:53:02.000Z,100
2023-09-22T05:54:33.000Z,100
2023-09-22T05:56:03.000Z,100
2023-09-22T05:57:34.000Z,100
2023-09-22T06:00:35.000Z,100
2023-09-22T06:02:05.000Z,100
2023-09-22T06:03:36.000Z,100
2023-09-22T06:04:53.000Z,100
2023-09-22T06:06:10.000Z,100
2023-09-22T06:07:40.000Z,100
2023-09-22T06:09:11.000Z,100
2023-09-22T06:10:41.000Z,100
2023-09-22T06:12:12.000Z,100
2023-09-22T06:13:42.000Z,100
2023-09-22T06:15:13.000Z,100
2023-09-22T06:16:43.000Z,100
2023-09-22T06:18:14.000Z,100
2023-09-22T06:19:44.000Z,100
2023-09-22T06:21:01.000Z,100
2023-09-22T06:22:18.000Z,100
2023-09-22T06:23:49.000Z,100
2023-09-22T06:25:19.000Z,100
2023-09-22T06:26:50.000Z,100
2023-09-22T06:28:20.000Z,100
2023-09-22T06:29:51.000Z,100
2023-09-22T06:31:21.000Z,100
2023-09-22T06:32:52.000Z,100
2023-09-22T06:34:22.000Z,100
2023-09-22T06:37:10.000Z,100
2023-09-22T06:38:27.000Z,100
2023-09-22T06:39:57.000Z,100
2023-09-22T06:41:28.000Z,100
2023-09-22T06:42:58.000Z,100
2023-09-22T06:44:29.000Z,100
2023-09-22T06:45:59.000Z,100
2023-09-22T06:47:30.000Z,100
2023-09-22T06:49:00.000Z,99.8
2023-09-22T06:50:31.000Z,99.9
2023-09-22T06:52:01.000Z,99.9
2023-09-22T06:53:18.000Z,99.7
2023-09-22T06:54:35.000Z,99.7
2023-09-22T06:56:06.000Z,99.7
2023-09-22T06:57:36.000Z,99.7
2023-09-22T06:59:07.000Z,99.5
2023-09-22T07:00:37.000Z,99.6
2023-09-22T07:02:08.000Z,99.5
2023-09-22T07:05:09.000Z,99.7
2023-09-22T07:06:39.000Z,99.3
2023-09-22T07:08:10.000Z,99.3
2023-09-22T07:09:27.000Z,99.3
2023-09-22T07:10:44.000Z,99.5
2023-09-22T07:12:14.000Z,99.5
2023-09-22T07:13:45.000Z,99.4
2023-09-22T07:15:15.000Z,99.6
2023-09-22T07:16:46.000Z,99.6
2023-09-22T07:18:16.000Z,99.4
2023-09-22T07:19:47.000Z,99.5
2023-09-22T07:21:18.000Z,99.4
2023-09-22T07:22:48.000Z,99.5
2023-09-22T07:24:19.000Z,99.4
2023-09-22T07:25:35.000Z,99.2
2023-09-22T07:26:53.207Z,99.1
2023-09-22T07:28:23.000Z,99.3
2023-09-22T07:29:53.000Z,99.5
2023-09-22T07:31:24.000Z,99.6
2023-09-22T07:34:25.000Z,99.2
2023-09-22T07:35:56.000Z,98.7
2023-09-22T07:37:26.000Z,98.3
2023-09-22T07:40:27.000Z,98.2
2023-09-22T07:41:44.000Z,97.4
2023-09-22T07:43:01.000Z,97.7
2023-09-22T07:44:31.000Z,97.7
2023-09-22T07:46:02.000Z,97.1
2023-09-22T07:49:03.000Z,96.5
2023-09-22T07:50:33.000Z,96
2023-09-22T07:53:34.000Z,95.7
2023-09-22T07:55:05.000Z,96.1
2023-09-22T07:57:52.000Z,96.8
2023-09-22T07:59:09.000Z,96.7
2023-09-22T08:00:40.000Z,96.8
2023-09-22T08:02:10.000Z,96.3
2023-09-22T08:03:41.000Z,96.6
2023-09-22T08:05:11.000Z,95
2023-09-22T08:06:42.000Z,95.8
2023-09-22T08:08:12.000Z,94.9
2023-09-22T08:09:43.000Z,94.9
2023-09-22T08:12:44.000Z,94
2023-09-22T08:14:01.000Z,93.2
2023-09-22T08:15:18.000Z,93.1
2023-09-22T08:16:48.000Z,92.8
2023-09-22T08:18:19.000Z,92.4
2023-09-22T08:19:49.000Z,92.2
2023-09-22T08:21:20.000Z,93
2023-09-22T08:22:50.000Z,91.3
2023-09-22T08:24:21.000Z,90.7
2023-09-22T08:27:30.000Z,88.8
2023-09-22T08:29:00.000Z,88
2023-09-22T08:30:17.000Z,89.4
2023-09-22T08:33:05.000Z,89.1
2023-09-22T08:34:35.000Z,87.9
2023-09-22T08:37:36.000Z,89.4
2023-09-22T08:39:07.000Z,89.8
2023-09-22T08:40:37.000Z,89.7
2023-09-22T08:42:08.000Z,89.3
2023-09-22T08:45:09.000Z,88.5
2023-09-22T08:46:39.000Z,84.9
2023-09-22T08:47:56.000Z,83
2023-09-22T08:49:13.000Z,80.5
2023-09-22T08:50:44.000Z,80
2023-09-22T08:52:14.000Z,79.4
2023-09-22T08:53:45.000Z,82.2
2023-09-22T08:56:46.000Z,85.3
2023-09-22T08:59:47.000Z,84.5
2023-09-22T09:01:17.000Z,84.5
2023-09-22T09:05:22.000Z,84.6
2023-09-22T09:08:23.000Z,83.9
2023-09-22T09:11:24.000Z,84.5
2023-09-22T09:12:54.000Z,84.4
2023-09-22T09:14:25.000Z,83.4
2023-09-22T09:15:55.000Z,85.3
2023-09-22T09:17:26.000Z,82.3
2023-09-22T09:18:56.000Z,81
2023-09-22T09:20:13.000Z,82.3
2023-09-22T09:21:30.000Z,84.2
2023-09-22T09:26:02.000Z,77.8
2023-09-22T09:29:03.000Z,82.3
2023-09-22T09:30:33.000Z,79.1
2023-09-22T09:32:04.000Z,79.8
2023-09-22T09:33:34.000Z,80.8
2023-09-22T09:35:05.000Z,83
2023-09-22T09:36:22.000Z,81.9
2023-09-22T09:37:39.000Z,80
2023-09-22T09:39:09.000Z,80.5
2023-09-22T09:40:40.000Z,82.7
2023-09-22T09:42:10.000Z,83.5
2023-09-22T09:43:41.000Z,81.9
2023-09-22T09:45:11.000Z,82.3
2023-09-22T09:46:42.000Z,83.5
2023-09-22T09:48:12.000Z,83.3
2023-09-22T09:49:43.000Z,84.5
2023-09-22T09:51:13.000Z,85.2
2023-09-22T09:52:30.000Z,83.3
2023-09-22T09:53:47.000Z,83.7
2023-09-22T09:55:17.000Z,84.2
2023-09-22T09:56:48.000Z,83.3
2023-09-22T09:58:18.000Z,83.9
2023-09-22T09:59:49.000Z,84.4
2023-09-22T10:01:19.000Z,86.7
2023-09-22T10:02:50.000Z,87.3
2023-09-22T10:04:20.000Z,86.5
2023-09-22T10:05:51.000Z,77.6
2023-09-22T10:07:21.000Z,71.7
2023-09-22T10:08:38.000Z,70.2
2023-09-22T10:11:26.000Z,71.9
2023-09-22T10:12:56.000Z,75.1
2023-09-22T10:14:27.000Z,77.8
2023-09-22T10:15:57.000Z,77.7
2023-09-22T10:17:28.000Z,79.5
2023-09-22T10:18:58.000Z,79.6
2023-09-22T10:20:29.000Z,77.6
2023-09-22T10:21:59.000Z,77.2
2023-09-22T10:23:30.000Z,77.4
2023-09-22T10:24:47.000Z,77.3
2023-09-22T10:26:04.000Z,77.1
2023-09-22T10:27:34.000Z,77.5
2023-09-22T10:29:05.000Z,80.5
2023-09-22T10:30:35.000Z,77.8
2023-09-22T10:32:06.000Z,77.8
2023-09-22T10:33:36.000Z,79.3
2023-09-22T10:35:07.000Z,80.4
2023-09-22T10:36:37.000Z,81.8
2023-09-22T10:38:08.000Z,79.8
2023-09-22T10:40:55.000Z,79.8
2023-09-22T10:42:12.000Z,79.3
2023-09-22T10:43:43.000Z,77.5
2023-09-22T10:45:13.000Z,76.8
2023-09-22T10:46:44.000Z,77.6
2023-09-22T10:48:14.000Z,78.6
2023-09-22T10:49:45.000Z,77.8
2023-09-22T10:51:15.000Z,77.9
2023-09-22T10:54:16.000Z,79.4
2023-09-22T10:57:04.000Z,78.8
2023-09-22T10:58:21.000Z,78.3
2023-09-22T10:59:51.000Z,79.7
2023-09-22T11:01:22.000Z,81.2
2023-09-22T11:02:52.000Z,80.7
2023-09-22T11:04:23.000Z,80.5
2023-09-22T11:05:53.000Z,81.9
2023-09-22T11:08:54.000Z,79.6
2023-09-22T11:10:25.000Z,79.7
2023-09-22T11:11:55.000Z,79.7
2023-09-22T11:13:12.000Z,80.6
2023-09-22T11:14:29.000Z,80.2
2023-09-22T11:16:00.000Z,80
2023-09-22T11:17:30.000Z,79.1
2023-09-22T11:20:31.000Z,80.6
2023-09-22T11:22:02.000Z,81.4
2023-09-22T11:23:32.000Z,78.6
2023-09-22T11:26:33.000Z,77.3
2023-09-22T11:28:04.000Z,79.1
2023-09-22T11:29:20.000Z,79.3
2023-09-22T11:30:37.000Z,79.8
2023-09-22T11:32:08.000Z,78.2
2023-09-22T11:33:38.000Z,79.1
2023-09-22T11:35:09.000Z,78.3
2023-09-22T11:36:39.000Z,80.6
2023-09-22T11:38:10.000Z,78.5
2023-09-22T11:39:40.000Z,80
2023-09-22T11:41:11.000Z,80.1
2023-09-22T11:42:41.000Z,81.6
2023-09-22T11:44:12.000Z,80.1
2023-09-22T11:46:46.000Z,79.7
2023-09-22T11:48:16.000Z,80.8
2023-09-22T11:49:47.000Z,79.8
2023-09-22T11:52:48.000Z,80.4
2023-09-22T11:54:18.000Z,81.8
2023-09-22T11:55:49.000Z,81.6
2023-09-22T11:57:20.000Z,80.2
2023-09-22T11:58:50.000Z,80.4
2023-09-22T12:00:21.000Z,80.7
2023-09-22T12:02:54.000Z,77
2023-09-22T12:04:25.000Z,74.4
2023-09-22T12:05:55.000Z,74.7
2023-09-22T12:07:26.000Z,73.8
2023-09-22T12:08:57.000Z,75.7
2023-09-22T12:10:27.000Z,75.2
2023-09-22T12:11:58.000Z,74.7
2023-09-22T12:13:28.000Z,76
2023-09-22T12:16:29.000Z,77.4
2023-09-22T12:17:46.000Z,77.5
2023-09-22T12:20:33.000Z,76.5
2023-09-22T12:22:04.000Z,74.6
2023-09-22T12:23:34.000Z,74.1
2023-09-22T12:25:05.000Z,75.7
2023-09-22T12:26:35.000Z,75.7
2023-09-22T12:29:36.000Z,76.3
2023-09-22T12:32:37.000Z,74.7
2023-09-22T12:33:54.000Z,74.8
2023-09-22T12:35:11.000Z,74.5
2023-09-22T12:36:42.000Z,72.7
2023-09-22T12:41:13.000Z,70.2
2023-09-22T12:44:14.000Z,74.1
2023-09-22T12:45:45.000Z,76.9
2023-09-22T12:47:15.000Z,75.5
2023-09-22T12:48:46.000Z,73.2
2023-09-22T12:50:03.000Z,74
2023-09-22T12:51:20.000Z,74.2
2023-09-22T12:52:50.000Z,76.1
2023-09-22T12:54:21.000Z,74.1
2023-09-22T12:55:51.000Z,72.8
2023-09-22T12:57:22.000Z,74.5
2023-09-22T13:00:23.000Z,73.1
2023-09-22T13:04:54.000Z,68.3
2023-09-22T13:06:11.000Z,68
2023-09-22T13:07:28.000Z,66.4
2023-09-22T13:08:58.000Z,68.8
2023-09-22T13:10:29.000Z,68.3
2023-09-22T13:11:59.000Z,63.6
2023-09-22T13:13:30.000Z,64.6
2023-09-22T13:15:00.000Z,67
2023-09-22T13:18:01.000Z,66.4
2023-09-22T13:21:02.000Z,70.2
2023-09-22T13:22:19.000Z,69.1
2023-09-22T13:25:07.000Z,66.1
2023-09-22T13:26:37.000Z,67.3
2023-09-22T13:28:08.000Z,65.1
2023-09-22T13:29:38.000Z,67.8
2023-09-22T13:31:09.000Z,69.2
2023-09-22T13:32:40.000Z,67.4
2023-09-22T13:34:10.000Z,67.6
2023-09-22T13:37:11.000Z,66.2
2023-09-22T13:38:28.000Z,65.7
2023-09-22T13:39:45.000Z,66.8
2023-09-22T13:47:17.000Z,67.1
2023-09-22T13:50:18.000Z,63.6
2023-09-22T13:51:49.000Z,66
2023-09-22T13:53:19.000Z,64.1
2023-09-22T13:54:50.000Z,65.2
2023-09-22T13:56:07.000Z,65.3
2023-09-22T13:57:24.000Z,68.6
2023-09-22T14:00:25.000Z,63.9
2023-09-22T14:01:55.000Z,64.1
2023-09-22T14:03:26.000Z,64
2023-09-22T14:04:56.000Z,66.4
2023-09-22T14:07:57.000Z,65.3
2023-09-22T14:10:58.000Z,64.1
2023-09-22T14:12:15.000Z,64.7
2023-09-22T14:15:03.000Z,66.5
2023-09-22T14:18:04.000Z,64
2023-09-22T14:19:34.000Z,66.8
2023-09-22T14:21:05.000Z,64.9
2023-09-22T14:22:35.000Z,64.6
2023-09-22T14:24:06.000Z,65
2023-09-22T14:27:07.000Z,62.8
2023-09-22T14:28:24.000Z,63.5
2023-09-22T14:31:11.000Z,65.5
2023-09-22T14:32:42.000Z,64.6
2023-09-22T14:34:12.000Z,68.1
2023-09-22T14:37:13.000Z,66.1
2023-09-22T14:38:44.000Z,68.2
2023-09-22T14:40:14.000Z,66.6
2023-09-22T14:41:45.000Z,64.8
2023-09-22T14:43:15.000Z,65.4
2023-09-22T14:44:32.000Z,65
2023-09-22T14:47:20.000Z,64.9
2023-09-22T14:48:50.000Z,62.6
2023-09-22T14:51:51.000Z,62.1
2023-09-22T14:53:22.000Z,62.5
2023-09-22T14:54:52.000Z,64.3
2023-09-22T14:57:53.000Z,63.9
2023-09-22T15:03:28.000Z,64.2
2023-09-22T15:04:59.000Z,64.6
2023-09-22T15:08:00.000Z,63.4
2023-09-22T15:09:30.000Z,63.9
2023-09-22T15:11:01.000Z,64
2023-09-22T15:12:31.000Z,64.1
2023-09-22T15:14:02.000Z,65.1
2023-09-22T15:15:32.000Z,64.9
2023-09-22T15:16:49.000Z,66.7
2023-09-22T15:19:37.000Z,65.2
2023-09-22T15:21:07.000Z,65.4
2023-09-22T15:22:38.000Z,66.5
2023-09-22T15:24:08.000Z,66.4
2023-09-22T15:25:39.000Z,64.8
2023-09-22T15:27:10.000Z,64.6
2023-09-22T15:30:11.000Z,66.8
2023-09-22T15:32:58.000Z,65.5
2023-09-22T15:34:15.000Z,64.6
2023-09-22T15:35:45.000Z,67.5
2023-09-22T15:37:16.000Z,69.1
2023-09-22T15:38:47.000Z,67.4
2023-09-22T15:41:48.000Z,67.3
2023-09-22T15:43:18.000Z,68
2023-09-22T15:44:49.000Z,66.5
2023-09-22T15:46:19.000Z,67.1
2023-09-22T15:47:50.000Z,66.9
2023-09-22T15:49:07.000Z,67.1
2023-09-22T15:50:24.000Z,67.7
2023-09-22T15:51:54.000Z,68.9
2023-09-22T15:53:25.000Z,68.9
2023-09-22T15:54:55.000Z,68.4
2023-09-22T15:56:26.000Z,69
2023-09-22T15:57:56.000Z,67.7
2023-09-22T15:59:27.000Z,68.4
2023-09-22T16:02:28.000Z,72.2
2023-09-22T16:05:15.000Z,69.6
2023-09-22T16:06:32.000Z,68.2
2023-09-22T16:08:03.000Z,70
2023-09-22T16:09:33.000Z,72.1
2023-09-22T16:11:04.000Z,70.6
2023-09-22T16:12:34.000Z,70.6
2023-09-22T16:14:05.000Z,71.8
2023-09-22T16:18:36.000Z,71.9
2023-09-22T16:21:24.000Z,74.2
2023-09-22T16:22:40.000Z,76.1
2023-09-22T16:24:11.000Z,77.2
2023-09-22T16:25:41.000Z,77.5
2023-09-22T16:27:12.000Z,78.2
2023-09-22T16:28:42.000Z,79.4
2023-09-22T16:31:43.000Z,81
2023-09-22T16:33:14.000Z,81.9
2023-09-22T16:36:15.000Z,83.5
2023-09-22T16:37:32.000Z,84.5
2023-09-22T16:38:49.000Z,85
2023-09-22T16:40:19.000Z,85.4
2023-09-22T16:41:50.000Z,84.4
2023-09-22T16:43:20.000Z,84.1
2023-09-22T16:44:51.000Z,84.5
2023-09-22T16:46:21.000Z,85.5
2023-09-22T16:47:52.000Z,85.9
2023-09-22T16:49:22.000Z,86.3
2023-09-22T16:50:53.000Z,86.6
2023-09-22T16:52:23.000Z,87.7
2023-09-22T16:53:40.000Z,88
2023-09-22T16:56:27.000Z,88.9
2023-09-22T16:57:58.000Z,88.3
2023-09-22T17:00:59.000Z,89.9
2023-09-22T17:02:29.000Z,91.1
2023-09-22T17:04:00.000Z,91.8
2023-09-22T17:05:30.000Z,92
2023-09-22T17:07:01.000Z,92.7
2023-09-22T17:08:31.000Z,92.8
2023-09-22T17:09:48.000Z,93.6
2023-09-22T17:11:05.000Z,94.8
2023-09-22T17:12:36.000Z,95
2023-09-22T17:14:06.000Z,95
2023-09-22T17:15:37.000Z,95.3
2023-09-22T17:17:07.000Z,95.3
2023-09-22T17:18:38.000Z,94.8
2023-09-22T17:20:08.000Z,95
2023-09-22T17:21:39.000Z,94.6
2023-09-22T17:23:09.000Z,94.8
2023-09-22T17:24:40.000Z,95.2
2023-09-22T17:25:57.000Z,95.5
2023-09-22T17:28:44.000Z,95.9
2023-09-22T17:30:15.000Z,96
2023-09-22T17:31:45.000Z,96.3
2023-09-22T17:33:16.000Z,96.8
2023-09-22T17:34:47.000Z,97
2023-09-22T17:36:17.000Z,97
2023-09-22T17:37:48.000Z,97.2
2023-09-22T17:39:18.000Z,97.3
2023-09-22T17:40:49.000Z,97.1
2023-09-22T17:42:06.000Z,97
2023-09-22T17:43:22.000Z,97.1
2023-09-22T17:44:53.000Z,97.3
2023-09-22T17:46:23.000Z,97.4
2023-09-22T17:50:55.000Z,98.1
2023-09-22T17:52:25.000Z,98.1
2023-09-22T17:53:56.000Z,98.4
2023-09-22T17:55:26.000Z,98.5
2023-09-22T17:58:14.000Z,99.5
2023-09-22T17:59:31.000Z,99
2023-09-22T18:01:01.000Z,98
2023-09-22T18:04:02.000Z,98.9
2023-09-22T18:05:33.000Z,99.7
2023-09-22T18:07:03.000Z,100
2023-09-22T18:10:04.000Z,100
2023-09-22T18:13:05.000Z,100
2023-09-22T18:14:22.000Z,100
2023-09-22T18:15:39.000Z,100
2023-09-22T18:17:10.000Z,100
2023-09-22T18:18:40.000Z,100
2023-09-22T18:20:11.000Z,100
2023-09-22T18:21:41.000Z,100
2023-09-22T18:23:12.000Z,100
2023-09-22T18:24:42.000Z,100
2023-09-22T18:26:13.000Z,100
2023-09-22T18:27:43.000Z,100
2023-09-22T18:29:14.000Z,100
2023-09-22T18:30:30.000Z,100
2023-09-22T18:31:47.000Z,100
2023-09-22T18:33:18.000Z,100
2023-09-22T18:34:48.000Z,100
2023-09-22T18:36:19.000Z,100
2023-09-22T18:37:49.000Z,100
2023-09-22T18:39:20.000Z,100
2023-09-22T18:40:50.000Z,100
2023-09-22T18:42:29.000Z,100
2023-09-22T18:44:00.000Z,100
2023-09-22T18:45:30.000Z,100
2023-09-22T18:46:47.000Z,100
2023-09-22T18:48:04.000Z,100
2023-09-22T18:49:35.000Z,100
2023-09-22T18:51:05.000Z,100
2023-09-22T18:52:36.000Z,100
2023-09-22T18:54:06.000Z,100
2023-09-22T18:55:37.000Z,100
2023-09-22T18:57:07.000Z,100
2023-09-22T18:58:38.000Z,100
2023-09-22T19:00:08.000Z,100
2023-09-22T19:01:39.000Z,100
2023-09-22T19:02:56.000Z,100
2023-09-22T19:04:13.000Z,100
2023-09-22T19:05:43.000Z,100
2023-09-22T19:07:14.000Z,100
2023-09-22T19:08:44.000Z,100
2023-09-22T19:10:15.000Z,100
2023-09-22T19:11:45.000Z,100
2023-09-22T19:13:16.000Z,100
2023-09-22T19:14:46.000Z,100
2023-09-22T19:16:17.000Z,100
2023-09-22T19:17:47.000Z,100
2023-09-22T19:19:04.000Z,100
2023-09-22T19:20:21.000Z,100
2023-09-22T19:21:52.000Z,100
2023-09-22T19:23:22.000Z,100
2023-09-22T19:24:53.000Z,100
2023-09-22T19:27:54.000Z,100
2023-09-22T19:30:55.000Z,100
2023-09-22T19:32:25.000Z,100
2023-09-22T19:33:56.000Z,100
2023-09-22T19:35:13.000Z,100
2023-09-22T19:36:29.000Z,100
2023-09-22T19:38:00.000Z,100
2023-09-22T19:39:30.000Z,100
2023-09-22T19:41:01.000Z,100
2023-09-22T19:44:02.000Z,100
2023-09-22T19:45:32.000Z,100
2023-09-22T19:47:03.000Z,100
2023-09-22T19:48:33.000Z,100
2023-09-22T19:50:04.000Z,100
2023-09-22T19:51:21.000Z,100
2023-09-22T19:52:38.000Z,100
2023-09-22T19:54:08.000Z,100
2023-09-22T19:55:39.000Z,100
2023-09-22T19:57:09.000Z,100
2023-09-22T19:58:40.000Z,100
2023-09-22T20:00:10.000Z,100
2023-09-22T20:01:41.000Z,100
2023-09-22T20:03:11.000Z,100
2023-09-22T20:04:42.000Z,100
2023-09-22T20:06:12.000Z,100
2023-09-22T20:07:29.000Z,100
2023-09-22T20:08:46.000Z,100
2023-09-22T20:10:17.000Z,100
2023-09-22T20:11:47.000Z,100
2023-09-22T20:13:18.000Z,100
2023-09-22T20:14:48.000Z,100
2023-09-22T20:16:19.000Z,100
2023-09-22T20:17:49.000Z,100
2023-09-22T20:19:20.000Z,100
2023-09-22T20:20:50.000Z,100
2023-09-22T20:22:21.000Z,100
2023-09-22T20:23:38.000Z,100
2023-09-22T20:24:55.000Z,100
2023-09-22T20:26:25.000Z,100
2023-09-22T20:27:56.000Z,100
2023-09-22T20:29:26.000Z,100
2023-09-22T20:30:57.000Z,100
2023-09-22T20:32:27.000Z,100
2023-09-22T20:33:58.000Z,100
2023-09-22T20:35:28.000Z,100
2023-09-22T20:36:59.000Z,100
2023-09-22T20:38:29.000Z,100
2023-09-22T20:39:46.000Z,100
2023-09-22T20:41:03.000Z,100
2023-09-22T20:42:34.000Z,100
2023-09-22T20:44:04.000Z,100
2023-09-22T20:45:35.000Z,100
2023-09-22T20:47:05.000Z,100
2023-09-22T20:48:36.000Z,100
2023-09-22T20:50:06.000Z,100
2023-09-22T20:51:37.000Z,100
2023-09-22T20:53:07.000Z,100
2023-09-22T20:54:38.000Z,100
2023-09-22T20:55:55.000Z,100
2023-09-22T20:57:12.000Z,100
2023-09-22T20:58:42.000Z,100
2023-09-22T21:00:13.000Z,100
2023-09-22T21:01:43.000Z,100
2023-09-22T21:03:14.000Z,100
2023-09-22T21:04:44.000Z,100
2023-09-22T21:06:15.000Z,100
2023-09-22T21:07:45.000Z,100
2023-09-22T21:09:16.000Z,100
2023-09-22T21:10:46.000Z,100
2023-09-22T21:12:03.000Z,100
2023-09-22T21:13:20.000Z,100
2023-09-22T21:14:51.000Z,100
2023-09-22T21:16:21.000Z,100
2023-09-22T21:17:52.000Z,100
2023-09-22T21:19:22.000Z,100
2023-09-22T21:20:53.000Z,100
2023-09-22T21:22:23.000Z,100
2023-09-22T21:23:54.000Z,100
2023-09-22T21:25:24.000Z,100
2023-09-22T21:26:55.000Z,100
2023-09-22T21:28:11.000Z,100
2023-09-22T21:29:28.000Z,100
2023-09-22T21:30:59.000Z,100
2023-09-22T21:32:29.000Z,100
2023-09-22T21:34:00.000Z,100
2023-09-22T21:35:30.000Z,100
2023-09-22T21:37:01.000Z,100
2023-09-22T21:38:31.000Z,100
2023-09-22T21:40:02.000Z,100
2023-09-22T21:41:32.000Z,100
2023-09-22T21:43:03.000Z,100
2023-09-22T21:44:20.000Z,100
2023-09-22T21:45:37.000Z,100
2023-09-22T21:47:07.000Z,100
2023-09-22T21:48:38.000Z,100
2023-09-22T21:50:08.000Z,100
2023-09-22T21:51:39.000Z,100
2023-09-22T21:53:09.000Z,100
2023-09-22T21:54:40.000Z,100
2023-09-22T21:56:10.000Z,100
2023-09-22T21:57:41.000Z,100
2023-09-22T21:59:11.000Z,100
2023-09-22T22:00:28.000Z,100
2023-09-22T22:01:45.000Z,100
2023-09-22T22:03:16.000Z,100
2023-09-22T22:04:46.000Z,100
2023-09-22T22:06:17.000Z,100
2023-09-22T22:09:18.000Z,100
2023-09-22T22:10:48.000Z,100
2023-09-22T22:12:19.000Z,100
2023-09-22T22:13:49.000Z,100
2023-09-22T22:15:20.000Z,100
2023-09-22T22:16:37.000Z,100
2023-09-22T22:17:54.000Z,100
2023-09-22T22:19:24.000Z,100
2023-09-22T22:20:55.000Z,100
2023-09-22T22:22:25.000Z,100
2023-09-22T22:23:56.000Z,100
2023-09-22T22:25:26.000Z,100
2023-09-22T22:26:57.000Z,100
2023-09-22T22:28:28.000Z,100